EGOM

RAF Spadeadam Airport

Spadeadam, United Kingdom
METAR EGOM 241150Z 27011KT 9999 SCT028 BKN040 11/06 Q1036 BLU
Observed Flight Rules
Sep-24 @ 11:50 UTC (18 minutes ago) Visual Flight Rules
Wind Visibility Clouds
270° at 11 knots 10,000+ meters
  • Scattered at 2,800' AGL
  • Broken at 4,000' AGL
Temperatures Readings
Current 11°C / 52°F
Dewpoint 6°C / 43°F
Humidity 72%
Altimeter 30.59" Hg
Pressure 1036 hPa
Elevation 325
METAR EGOM 241150Z 27011KT 9999 SCT028 BKN040 11/06 Q1036 BLU
Observed Flight Rules
Sep-24 @ 11:50 UTC
(18 minutes ago)
VFR
Wind Visibility
270° at 11 knots 10,000+ meters
Clouds
  • Scattered at 2,800' AGL
  • Broken at 4,000' AGL
Temperature Dewpoint
11°C / 52°F 6°C / 43°F
Humidity Altimeter Pressure
72% 30.59" Hg 1036 hPa